Time;durP1;ratioP1;P1;durP2;ratioP2;P2;SDS_P1;SDS_P2;PMS_P1;PMS_P2;Temp;Humidity;BMP_temperature;BMP_pressure;BME280_temperature;BME280_humidity;BME280_pressure;Samples;Min_cycle;Max_cycle;Signal;HPM_P1;HPM_P2
2022/06/06 00:01:13;;;;;;;34.87;27.70;;;;;;;;;;5135520;27;20537;-72
2022/06/06 00:03:40;;;;;;;33.03;26.20;;;;;;;;;;5135873;27;20493;-72
2022/06/06 00:06:11;;;;;;;35.57;28.77;;;;;;;;;;5135454;27;20433;-73
2022/06/06 00:08:39;;;;;;;42.90;29.37;;;;;;;;;;5135371;27;20543;-72
2022/06/06 00:11:08;;;;;;;32.03;26.77;;;;;;;;;;5135349;27;20446;-73
2022/06/06 00:13:37;;;;;;;33.87;27.80;;;;;;;;;;5135758;27;20470;-72
2022/06/06 00:16:05;;;;;;;39.40;30.70;;;;;;;;;;5135497;27;20523;-72
2022/06/06 00:18:32;;;;;;;43.20;30.67;;;;;;;;;;5135124;27;20486;-72
2022/06/06 00:21:00;;;;;;;47.97;28.40;;;;;;;;;;5134974;27;20937;-71
2022/06/06 00:23:27;;;;;;;53.10;31.57;;;;;;;;;;5135569;27;20529;-72
2022/06/06 00:25:56;;;;;;;50.60;34.30;;;;;;;;;;5134774;27;20522;-72
2022/06/06 00:28:23;;;;;;;57.67;34.70;;;;;;;;;;5135143;27;20453;-72
2022/06/06 00:30:56;;;;;;;50.87;35.40;;;;;;;;;;5135035;27;20443;-72
2022/06/06 00:36:08;;;;;;;52.30;34.37;;;;;;;;;;5134834;27;20395;-72
2022/06/06 00:38:35;;;;;;;55.83;35.20;;;;;;;;;;5135296;27;20456;-72
2022/06/06 00:41:02;;;;;;;55.00;38.63;;;;;;;;;;5134533;27;20538;-72
2022/06/06 00:43:30;;;;;;;52.70;36.03;;;;;;;;;;5135098;27;20472;-72
2022/06/06 00:45:59;;;;;;;59.47;38.03;;;;;;;;;;5135111;27;20525;-73
2022/06/06 00:48:28;;;;;;;55.00;33.67;;;;;;;;;;5133663;27;20466;-72
2022/06/06 00:50:59;;;;;;;55.43;36.63;;;;;;;;;;5134367;27;20533;-72
2022/06/06 00:53:29;;;;;;;66.97;37.10;;;;;;;;;;5134489;27;20463;-72
2022/06/06 00:55:58;;;;;;;65.17;39.10;;;;;;;;;;5134860;27;20473;-72
2022/06/06 00:58:26;;;;;;;62.03;38.20;;;;;;;;;;5134352;27;20446;-72
2022/06/06 01:00:53;;;;;;;70.87;39.17;;;;;;;;;;5134520;27;20439;-72
2022/06/06 01:03:25;;;;;;;63.83;40.57;;;;;;;;;;5134304;27;20528;-71
2022/06/06 01:05:52;;;;;;;71.13;40.63;;;;;;;;;;5134910;27;20440;-72
2022/06/06 01:08:21;;;;;;;78.70;46.70;;;;;;;;;;5134231;27;20525;-72
2022/06/06 01:10:48;;;;;;;83.50;46.60;;;;;;;;;;5134915;27;20553;-72
2022/06/06 01:13:17;;;;;;;82.87;46.87;;;;;;;;;;5134153;28;20974;-72
2022/06/06 01:15:51;;;;;;;82.33;47.70;;;;;;;;;;5134363;28;20852;-73
2022/06/06 01:18:22;;;;;;;95.70;49.77;;;;;;;;;;5134680;28;20798;-72
2022/06/06 01:21:11;;;;;;;97.43;51.57;;;;;;;;;;5134630;28;20435;-72
2022/06/06 01:23:58;;;;;;;85.37;44.93;;;;;;;;;;5134526;28;20506;-72
2022/06/06 01:26:32;;;;;;;87.47;45.60;;;;;;;;;;5134854;28;20513;-71
2022/06/06 01:29:04;;;;;;;94.40;50.20;;;;;;;;;;5134365;28;20455;-72
2022/06/06 01:31:36;;;;;;;91.03;46.73;;;;;;;;;;5133974;28;20479;-71
2022/06/06 01:34:04;;;;;;;90.60;47.87;;;;;;;;;;5134388;28;20430;-71
2022/06/06 01:36:32;;;;;;;82.60;44.37;;;;;;;;;;5134186;28;20504;-71
2022/06/06 01:39:00;;;;;;;63.50;36.27;;;;;;;;;;5134268;28;20439;-70
2022/06/06 01:41:32;;;;;;;74.37;39.83;;;;;;;;;;5133811;28;20524;-72
2022/06/06 01:44:02;;;;;;;68.07;37.30;;;;;;;;;;5133915;28;20437;-71
2022/06/06 01:46:32;;;;;;;63.70;33.70;;;;;;;;;;5134533;28;20522;-71
2022/06/06 01:48:59;;;;;;;59.87;28.97;;;;;;;;;;5134375;28;20474;-71
2022/06/06 01:51:28;;;;;;;53.23;30.47;;;;;;;;;;5134008;28;20477;-72
2022/06/06 01:53:55;;;;;;;56.30;32.07;;;;;;;;;;5134082;28;20475;-71
2022/06/06 01:56:25;;;;;;;50.37;29.93;;;;;;;;;;5133703;28;20939;-71
2022/06/06 01:58:52;;;;;;;56.27;29.90;;;;;;;;;;5134195;28;20440;-72
2022/06/06 02:01:20;;;;;;;43.53;24.63;;;;;;;;;;5137448;27;20810;-71
2022/06/06 02:03:48;;;;;;;44.33;27.73;;;;;;;;;;5137691;27;20940;-71
2022/06/06 02:06:15;;;;;;;47.10;27.80;;;;;;;;;;5137545;27;20526;-71
2022/06/06 02:08:43;;;;;;;44.63;26.13;;;;;;;;;;5137904;27;20438;-72
2022/06/06 02:11:11;;;;;;;48.03;26.27;;;;;;;;;;5137524;27;20491;-72
2022/06/06 02:13:39;;;;;;;47.50;27.33;;;;;;;;;;5137794;27;20533;-72
2022/06/06 02:16:06;;;;;;;41.53;23.57;;;;;;;;;;5137751;27;20475;-72
2022/06/06 02:18:33;;;;;;;43.33;26.40;;;;;;;;;;5137272;27;20442;-72
2022/06/06 02:21:02;;;;;;;39.27;24.97;;;;;;;;;;5137337;27;20442;-72
2022/06/06 02:23:30;;;;;;;40.37;24.30;;;;;;;;;;5137297;27;20519;-71
2022/06/06 02:25:57;;;;;;;40.47;23.13;;;;;;;;;;5137594;27;20465;-71
2022/06/06 02:28:24;;;;;;;37.90;22.33;;;;;;;;;;5137145;27;20443;-72
2022/06/06 02:30:51;;;;;;;32.90;19.93;;;;;;;;;;5137057;27;20568;-71
2022/06/06 02:33:19;;;;;;;34.93;21.40;;;;;;;;;;5137482;27;20430;-71
2022/06/06 02:35:46;;;;;;;34.63;21.20;;;;;;;;;;5137379;27;20533;-71
2022/06/06 02:38:15;;;;;;;35.97;21.73;;;;;;;;;;5137050;27;20444;-71
2022/06/06 02:40:44;;;;;;;35.73;21.63;;;;;;;;;;5136993;27;20436;-71
2022/06/06 02:43:12;;;;;;;37.90;22.83;;;;;;;;;;5137178;27;20447;-71
2022/06/06 02:45:39;;;;;;;38.47;21.43;;;;;;;;;;5137232;27;20476;-71
2022/06/06 02:48:07;;;;;;;31.63;22.87;;;;;;;;;;5136903;27;20490;-71
2022/06/06 02:50:35;;;;;;;36.30;21.43;;;;;;;;;;5136874;27;21095;-71
2022/06/06 02:53:02;;;;;;;39.53;23.13;;;;;;;;;;5137216;27;20438;-71
2022/06/06 02:55:31;;;;;;;36.60;22.00;;;;;;;;;;5137334;27;20862;-71
2022/06/06 02:57:59;;;;;;;37.43;22.63;;;;;;;;;;5136871;27;20436;-71
2022/06/06 03:00:28;;;;;;;35.17;23.10;;;;;;;;;;5136609;27;20540;-71
2022/06/06 03:02:56;;;;;;;34.43;19.30;;;;;;;;;;5136444;27;20474;-71
2022/06/06 03:05:23;;;;;;;32.10;20.23;;;;;;;;;;5136934;27;20442;-73
2022/06/06 03:08:00;;;;;;;37.30;20.27;;;;;;;;;;5136362;27;20523;-72
2022/06/06 03:10:32;;;;;;;35.27;21.33;;;;;;;;;;5136383;27;20462;-72
2022/06/06 03:13:06;;;;;;;33.87;21.70;;;;;;;;;;5135475;27;20525;-71
2022/06/06 03:15:41;;;;;;;35.77;20.13;;;;;;;;;;5136686;27;20518;-71
2022/06/06 03:21:07;;;;;;;35.40;20.93;;;;;;;;;;5136346;27;20803;-73
2022/06/06 03:23:48;;;;;;;37.40;22.00;;;;;;;;;;5136521;27;20454;-71
2022/06/06 03:26:18;;;;;;;37.27;22.07;;;;;;;;;;5136542;27;20867;-71
2022/06/06 03:28:54;;;;;;;38.40;19.43;;;;;;;;;;5136232;27;20453;-72
2022/06/06 03:31:27;;;;;;;30.53;21.20;;;;;;;;;;5135993;27;20990;-72
2022/06/06 03:34:00;;;;;;;28.07;16.07;;;;;;;;;;5136231;27;20415;-71
2022/06/06 03:36:40;;;;;;;27.80;17.90;;;;;;;;;;5136674;27;20859;-70
2022/06/06 03:39:12;;;;;;;26.80;17.77;;;;;;;;;;5135801;27;20498;-69
2022/06/06 03:41:46;;;;;;;29.73;17.40;;;;;;;;;;5136535;27;20810;-69
2022/06/06 03:44:25;;;;;;;26.30;16.70;;;;;;;;;;5136085;27;20826;-70
2022/06/06 03:46:56;;;;;;;25.90;17.50;;;;;;;;;;5135744;27;20433;-70
2022/06/06 03:49:27;;;;;;;31.50;18.83;;;;;;;;;;5135798;27;20470;-70
2022/06/06 03:52:01;;;;;;;32.03;18.80;;;;;;;;;;5135559;27;20521;-71
2022/06/06 03:54:33;;;;;;;27.70;17.57;;;;;;;;;;5135491;27;20918;-70
2022/06/06 03:57:06;;;;;;;31.57;20.07;;;;;;;;;;5134570;27;20435;-70
2022/06/06 03:59:35;;;;;;;30.13;17.97;;;;;;;;;;5135706;27;20514;-70
2022/06/06 04:02:05;;;;;;;29.50;16.93;;;;;;;;;;5135493;27;20488;-69
2022/06/06 04:04:33;;;;;;;26.70;16.60;;;;;;;;;;5135168;27;20523;-69
2022/06/06 04:07:01;;;;;;;27.07;16.60;;;;;;;;;;5135478;27;20865;-69
2022/06/06 04:09:30;;;;;;;33.53;18.03;;;;;;;;;;5135402;27;20435;-69
2022/06/06 04:12:03;;;;;;;29.73;16.77;;;;;;;;;;5135310;27;20472;-69
2022/06/06 04:14:36;;;;;;;29.90;17.80;;;;;;;;;;5135329;27;20512;-70
2022/06/06 04:17:10;;;;;;;31.53;18.70;;;;;;;;;;5135390;27;20422;-68
2022/06/06 04:19:40;;;;;;;37.20;19.27;;;;;;;;;;5134791;27;20447;-68
2022/06/06 04:22:16;;;;;;;38.70;20.70;;;;;;;;;;5135482;27;20832;-68
2022/06/06 04:24:51;;;;;;;39.93;22.23;;;;;;;;;;5134879;27;20509;-70
2022/06/06 04:27:25;;;;;;;46.93;23.67;;;;;;;;;;5135320;27;20440;-68
2022/06/06 04:29:58;;;;;;;45.30;24.20;;;;;;;;;;5134925;27;20550;-68
2022/06/06 04:32:31;;;;;;;50.17;27.23;;;;;;;;;;5135184;27;20430;-68
2022/06/06 04:35:03;;;;;;;50.07;28.60;;;;;;;;;;5134942;27;20519;-68
2022/06/06 04:37:36;;;;;;;57.20;28.70;;;;;;;;;;5134908;27;20440;-68
2022/06/06 04:40:10;;;;;;;56.07;28.60;;;;;;;;;;5134364;27;20517;-69
2022/06/06 04:42:42;;;;;;;63.17;32.50;;;;;;;;;;5134478;27;20517;-68
2022/06/06 04:45:13;;;;;;;55.60;32.50;;;;;;;;;;5134690;27;20429;-68
2022/06/06 04:47:43;;;;;;;56.27;35.40;;;;;;;;;;5134600;27;20544;-68
2022/06/06 04:50:11;;;;;;;54.27;31.83;;;;;;;;;;5134203;27;21072;-69
2022/06/06 04:52:42;;;;;;;64.43;33.30;;;;;;;;;;5134337;27;20444;-68
2022/06/06 04:55:11;;;;;;;60.07;31.70;;;;;;;;;;5134239;27;20519;-68
2022/06/06 04:57:40;;;;;;;56.83;31.67;;;;;;;;;;5134531;27;20473;-68
2022/06/06 05:00:09;;;;;;;54.60;32.37;;;;;;;;;;5134247;27;20878;-70
2022/06/06 05:02:37;;;;;;;54.30;31.53;;;;;;;;;;5134639;27;20490;-69
2022/06/06 05:05:07;;;;;;;58.63;31.93;;;;;;;;;;5134422;27;20523;-68
2022/06/06 05:07:49;;;;;;;54.00;31.23;;;;;;;;;;5134628;27;20544;-68
2022/06/06 05:10:25;;;;;;;52.07;30.90;;;;;;;;;;5134264;27;20464;-68
2022/06/06 05:13:01;;;;;;;49.10;30.33;;;;;;;;;;5134562;27;20842;-68
2022/06/06 05:15:37;;;;;;;53.57;31.07;;;;;;;;;;5134275;28;20467;-69
2022/06/06 05:18:19;;;;;;;59.30;31.80;;;;;;;;;;5134371;28;20849;-68
2022/06/06 05:20:55;;;;;;;58.47;34.13;;;;;;;;;;5134337;28;20869;-68
2022/06/06 05:23:34;;;;;;;48.47;31.57;;;;;;;;;;5134406;28;20462;-68
2022/06/06 05:26:12;;;;;;;58.37;33.80;;;;;;;;;;5133766;28;20468;-69
2022/06/06 05:28:47;;;;;;;55.73;33.93;;;;;;;;;;5134859;28;20829;-73
2022/06/06 05:31:21;;;;;;;55.80;36.90;;;;;;;;;;5134159;28;20816;-68
2022/06/06 05:33:52;;;;;;;60.90;35.90;;;;;;;;;;5133901;27;20422;-68
2022/06/06 05:36:28;;;;;;;59.90;34.63;;;;;;;;;;5137757;27;20728;-68
2022/06/06 05:39:10;;;;;;;53.30;35.60;;;;;;;;;;5138116;27;20970;-67
2022/06/06 05:41:44;;;;;;;54.20;33.17;;;;;;;;;;5138302;27;20527;-66
2022/06/06 05:44:17;;;;;;;53.80;33.00;;;;;;;;;;5137755;27;20468;-66
2022/06/06 05:46:49;;;;;;;51.57;35.60;;;;;;;;;;5137920;27;20511;-66
2022/06/06 05:49:25;;;;;;;59.77;35.07;;;;;;;;;;5137747;27;20480;-66
2022/06/06 05:52:00;;;;;;;56.17;34.50;;;;;;;;;;5137798;27;20562;-66
2022/06/06 05:54:45;;;;;;;43.37;30.33;;;;;;;;;;5137954;27;20438;-66
2022/06/06 05:57:31;;;;;;;42.37;29.20;;;;;;;;;;5137950;27;20523;-67
2022/06/06 06:00:06;;;;;;;42.30;30.03;;;;;;;;;;5137638;27;20903;-67
2022/06/06 06:02:44;;;;;;;43.27;28.60;;;;;;;;;;5137678;27;20517;-67
2022/06/06 06:05:28;;;;;;;36.20;23.93;;;;;;;;;;5138109;27;20422;-67
2022/06/06 06:08:02;;;;;;;39.20;26.20;;;;;;;;;;5137892;27;20428;-67
2022/06/06 06:10:32;;;;;;;26.87;20.50;;;;;;;;;;5137372;27;20556;-68
2022/06/06 06:13:17;;;;;;;28.20;18.70;;;;;;;;;;5138058;27;20528;-68
2022/06/06 06:15:45;;;;;;;37.10;19.67;;;;;;;;;;5137094;27;20949;-68
2022/06/06 06:18:17;;;;;;;20.87;16.57;;;;;;;;;;5137305;27;20455;-68
2022/06/06 06:20:47;;;;;;;19.90;16.23;;;;;;;;;;5137238;27;20471;-69
2022/06/06 06:23:19;;;;;;;19.13;14.47;;;;;;;;;;5137166;27;20476;-68
2022/06/06 06:25:48;;;;;;;20.53;15.07;;;;;;;;;;5137331;27;20552;-68
2022/06/06 06:28:16;;;;;;;20.47;15.67;;;;;;;;;;5136940;27;20446;-68
2022/06/06 06:30:51;;;;;;;20.10;17.00;;;;;;;;;;5137339;27;20477;-68
2022/06/06 06:33:24;;;;;;;23.30;16.10;;;;;;;;;;5137377;27;20466;-69
2022/06/06 06:35:57;;;;;;;21.37;15.63;;;;;;;;;;5137267;27;20530;-70
2022/06/06 06:38:37;;;;;;;22.63;15.27;;;;;;;;;;5137049;27;20523;-70
2022/06/06 06:41:10;;;;;;;22.60;14.70;;;;;;;;;;5136829;27;20458;-70
2022/06/06 06:43:51;;;;;;;19.33;14.20;;;;;;;;;;5136823;27;20435;-70
2022/06/06 06:46:21;;;;;;;18.70;13.87;;;;;;;;;;5135423;27;20520;-70
2022/06/06 06:48:51;;;;;;;14.80;12.67;;;;;;;;;;5136912;27;20574;-70
2022/06/06 06:51:21;;;;;;;13.27;11.20;;;;;;;;;;5136822;27;20479;-70
2022/06/06 06:54:04;;;;;;;13.20;11.07;;;;;;;;;;5137150;27;20427;-71
2022/06/06 06:56:48;;;;;;;12.40;10.50;;;;;;;;;;5136980;27;20849;-70
2022/06/06 06:59:18;;;;;;;14.80;11.57;;;;;;;;;;5136562;27;20463;-69
2022/06/06 07:10:21;;;;;;;11.40;9.13;;;;;;;;;;5136334;27;20403;-70
2022/06/06 07:13:03;;;;;;;10.80;8.67;;;;;;;;;;5136575;27;20841;-70
2022/06/06 07:15:36;;;;;;;12.00;8.70;;;;;;;;;;5136417;27;20510;-69
2022/06/06 07:18:06;;;;;;;10.27;8.17;;;;;;;;;;5136518;27;20863;-69
2022/06/06 07:20:36;;;;;;;10.80;8.97;;;;;;;;;;5136326;27;20444;-69
2022/06/06 07:23:06;;;;;;;10.80;8.10;;;;;;;;;;5136583;27;20480;-69
2022/06/06 07:25:38;;;;;;;8.83;7.73;;;;;;;;;;5136605;27;20778;-69
2022/06/06 07:28:06;;;;;;;10.83;8.40;;;;;;;;;;5136298;27;20431;-68
2022/06/06 07:30:34;;;;;;;9.03;7.20;;;;;;;;;;5135756;27;20524;-69
2022/06/06 07:33:08;;;;;;;8.27;7.03;;;;;;;;;;5136106;27;20472;-68
2022/06/06 07:35:39;;;;;;;8.07;7.00;;;;;;;;;;5136301;27;20471;-68
2022/06/06 07:38:13;;;;;;;7.47;5.77;;;;;;;;;;5136004;27;20793;-69
2022/06/06 07:40:46;;;;;;;6.90;5.90;;;;;;;;;;5136107;27;20428;-69
2022/06/06 07:43:20;;;;;;;8.77;5.30;;;;;;;;;;5135582;27;20433;-68
2022/06/06 07:45:48;;;;;;;5.87;5.27;;;;;;;;;;5135681;27;20873;-70
2022/06/06 07:48:30;;;;;;;6.37;5.40;;;;;;;;;;5135400;27;20569;-69
2022/06/06 07:51:03;;;;;;;5.60;5.10;;;;;;;;;;5132325;27;20519;-68
2022/06/06 07:53:36;;;;;;;5.80;4.93;;;;;;;;;;5135898;27;20514;-69
2022/06/06 07:56:08;;;;;;;6.67;5.67;;;;;;;;;;5135174;27;20431;-68
2022/06/06 07:58:39;;;;;;;8.50;5.03;;;;;;;;;;5135320;27;20473;-69
2022/06/06 08:01:09;;;;;;;5.40;4.90;;;;;;;;;;5135911;27;20431;-68
2022/06/06 08:03:44;;;;;;;5.93;4.27;;;;;;;;;;5135297;27;20920;-68
2022/06/06 08:06:16;;;;;;;4.93;4.53;;;;;;;;;;5135410;27;20520;-68
2022/06/06 08:08:59;;;;;;;4.67;4.17;;;;;;;;;;5135223;27;20508;-68
2022/06/06 08:11:34;;;;;;;7.30;3.97;;;;;;;;;;5135544;27;20475;-68
2022/06/06 08:14:04;;;;;;;5.53;3.57;;;;;;;;;;5134978;27;20907;-69
2022/06/06 08:16:36;;;;;;;7.60;3.87;;;;;;;;;;5135830;27;20542;-68
2022/06/06 08:19:25;;;;;;;4.70;3.83;;;;;;;;;;5134835;27;20493;-69
2022/06/06 08:21:52;;;;;;;4.20;3.80;;;;;;;;;;5127391;27;20455;-68
2022/06/06 08:24:22;;;;;;;5.27;4.77;;;;;;;;;;5135249;27;20434;-68
2022/06/06 08:26:52;;;;;;;7.67;6.30;;;;;;;;;;5135016;27;20475;-68
2022/06/06 08:29:19;;;;;;;6.13;5.53;;;;;;;;;;5135446;27;20433;-69
2022/06/06 08:31:47;;;;;;;7.87;5.50;;;;;;;;;;5134937;27;20913;-68
2022/06/06 08:34:14;;;;;;;8.87;6.00;;;;;;;;;;5134929;27;20440;-68
2022/06/06 08:36:48;;;;;;;7.10;5.87;;;;;;;;;;5134552;27;20932;-68
2022/06/06 08:39:22;;;;;;;6.50;5.90;;;;;;;;;;5135191;27;20457;-69
2022/06/06 08:42:12;;;;;;;7.47;6.30;;;;;;;;;;5135231;27;20987;-68
2022/06/06 08:44:50;;;;;;;7.53;6.83;;;;;;;;;;5134804;27;20924;-69
2022/06/06 08:47:21;;;;;;;7.23;6.13;;;;;;;;;;5134411;27;20424;-69
2022/06/06 08:53:13;;;;;;;8.90;7.37;;;;;;;;;;5134648;27;20819;-68
2022/06/06 08:55:45;;;;;;;7.23;6.53;;;;;;;;;;5134513;27;20461;-69
2022/06/06 08:58:26;;;;;;;7.40;5.87;;;;;;;;;;5134773;27;20462;-68
2022/06/06 09:00:57;;;;;;;7.90;6.37;;;;;;;;;;5134489;27;20936;-69
2022/06/06 09:03:45;;;;;;;5.70;5.30;;;;;;;;;;5134824;27;20420;-69
2022/06/06 09:06:35;;;;;;;7.53;5.87;;;;;;;;;;5134406;27;20507;-69
2022/06/06 09:09:35;;;;;;;6.00;5.37;;;;;;;;;;5133864;27;20855;-69
2022/06/06 09:12:26;;;;;;;6.20;5.60;;;;;;;;;;5134118;27;20557;-68
2022/06/06 09:15:17;;;;;;;6.10;5.50;;;;;;;;;;5134229;27;20425;-69
2022/06/06 09:18:02;;;;;;;4.33;3.70;;;;;;;;;;5134995;28;20450;-69
2022/06/06 09:20:49;;;;;;;4.50;3.40;;;;;;;;;;5133866;28;20521;-69
2022/06/06 09:23:31;;;;;;;4.00;3.60;;;;;;;;;;5134362;28;20440;-68
2022/06/06 09:26:01;;;;;;;5.77;3.80;;;;;;;;;;5132552;28;20536;-68
2022/06/06 09:28:43;;;;;;;2.90;2.70;;;;;;;;;;5133844;28;20440;-69
2022/06/06 09:31:30;;;;;;;3.10;2.90;;;;;;;;;;5134479;28;20512;-69
2022/06/06 09:34:15;;;;;;;4.00;2.97;;;;;;;;;;5134150;28;20432;-68
2022/06/06 09:36:47;;;;;;;3.17;2.87;;;;;;;;;;5133912;28;20475;-69
2022/06/06 09:39:31;;;;;;;5.60;2.60;;;;;;;;;;5134284;28;20535;-69
2022/06/06 09:42:02;;;;;;;2.70;2.50;;;;;;;;;;5134118;28;20827;-68
2022/06/06 09:44:48;;;;;;;2.90;2.60;;;;;;;;;;5133799;28;20459;-69
2022/06/06 09:47:25;;;;;;;3.37;3.07;;;;;;;;;;5133255;28;20518;-69
2022/06/06 09:50:07;;;;;;;6.20;2.80;;;;;;;;;;5134172;27;20473;-69
2022/06/06 09:52:52;;;;;;;4.53;2.60;;;;;;;;;;5113490;28;20989;-68
2022/06/06 10:01:36;;;;;;;3.03;2.70;;;;;;;;;;5092588;28;20425;-68
2022/06/06 10:04:14;;;;;;;3.30;3.03;;;;;;;;;;5113084;28;20448;-69
2022/06/06 10:07:00;;;;;;;5.83;2.70;;;;;;;;;;5113840;28;20842;-69
2022/06/06 10:09:46;;;;;;;2.93;2.63;;;;;;;;;;5113313;28;20438;-68
2022/06/06 10:12:31;;;;;;;2.77;2.57;;;;;;;;;;5113113;28;20484;-68
2022/06/06 10:15:13;;;;;;;2.50;2.17;;;;;;;;;;5112978;28;20428;-68
2022/06/06 10:17:56;;;;;;;3.13;2.30;;;;;;;;;;5110796;28;20449;-70
2022/06/06 10:20:36;;;;;;;4.20;3.03;;;;;;;;;;5113483;28;20421;-68
2022/06/06 10:23:17;;;;;;;3.97;3.27;;;;;;;;;;5116697;28;20986;-70
2022/06/06 10:25:58;;;;;;;2.90;2.70;;;;;;;;;;5119066;27;20523;-68
2022/06/06 10:28:44;;;;;;;2.80;2.60;;;;;;;;;;5137113;27;20514;-69
2022/06/06 10:31:20;;;;;;;3.90;2.70;;;;;;;;;;5137145;27;20443;-69
2022/06/06 10:34:09;;;;;;;3.20;2.93;;;;;;;;;;5137524;27;20439;-69
2022/06/06 10:36:52;;;;;;;4.60;3.40;;;;;;;;;;5137367;27;20521;-69
2022/06/06 10:39:30;;;;;;;3.30;2.80;;;;;;;;;;5137264;27;20536;-69
2022/06/06 10:42:16;;;;;;;3.40;2.80;;;;;;;;;;5136898;27;20995;-68
2022/06/06 10:45:07;;;;;;;2.97;2.77;;;;;;;;;;5137045;27;20860;-69
2022/06/06 10:47:46;;;;;;;2.93;2.67;;;;;;;;;;5137206;27;20547;-68
2022/06/06 10:50:17;;;;;;;4.00;3.20;;;;;;;;;;5136648;27;21291;-68
2022/06/06 10:52:59;;;;;;;3.37;2.47;;;;;;;;;;5137243;27;20467;-69
2022/06/06 10:55:54;;;;;;;3.00;2.33;;;;;;;;;;5133446;27;20488;-69
2022/06/06 10:58:36;;;;;;;2.50;2.20;;;;;;;;;;5137100;27;20461;-69
2022/06/06 11:01:23;;;;;;;2.50;2.30;;;;;;;;;;5136773;27;20512;-69
2022/06/06 11:04:23;;;;;;;2.50;2.30;;;;;;;;;;5136744;27;20433;-68
2022/06/06 11:07:12;;;;;;;3.07;2.03;;;;;;;;;;5136679;27;20513;-69
2022/06/06 11:09:57;;;;;;;2.80;2.03;;;;;;;;;;5136632;27;20458;-68
2022/06/06 11:12:43;;;;;;;3.10;2.33;;;;;;;;;;5085416;27;20563;-68
2022/06/06 11:15:10;;;;;;;2.37;2.00;;;;;;;;;;5136158;27;20446;-69
2022/06/06 11:18:01;;;;;;;2.00;1.80;;;;;;;;;;5136455;27;20445;-69
2022/06/06 11:20:49;;;;;;;2.37;2.27;;;;;;;;;;5136614;27;20513;-69
2022/06/06 11:23:21;;;;;;;2.10;2.00;;;;;;;;;;5136773;27;20502;-69
2022/06/06 11:25:56;;;;;;;2.27;2.07;;;;;;;;;;5136159;27;20518;-68
2022/06/06 11:28:40;;;;;;;2.30;2.10;;;;;;;;;;5136432;27;20461;-69
2022/06/06 11:31:17;;;;;;;2.13;1.93;;;;;;;;;;5136207;27;20821;-69
2022/06/06 11:34:02;;;;;;;5.13;1.83;;;;;;;;;;5135722;27;20522;-69
2022/06/06 11:36:58;;;;;;;1.80;1.70;;;;;;;;;;5136561;27;20501;-69
2022/06/06 11:39:52;;;;;;;2.57;1.70;;;;;;;;;;5136680;27;20461;-68
2022/06/06 11:42:37;;;;;;;1.57;1.47;;;;;;;;;;5135791;27;20461;-69
2022/06/06 11:45:16;;;;;;;3.63;1.00;;;;;;;;;;5135464;27;20444;-68
2022/06/06 11:47:51;;;;;;;2.13;1.23;;;;;;;;;;5135399;27;20449;-68
2022/06/06 11:50:36;;;;;;;6.90;1.13;;;;;;;;;;5136108;27;20427;-68
2022/06/06 11:53:22;;;;;;;1.77;1.47;;;;;;;;;;5135536;27;20499;-69
2022/06/06 11:55:58;;;;;;;1.63;1.00;;;;;;;;;;5135384;27;20502;-69
2022/06/06 11:58:44;;;;;;;1.77;1.20;;;;;;;;;;5135729;27;20441;-69
2022/06/06 12:01:22;;;;;;;3.70;1.27;;;;;;;;;;5135699;27;20511;-69
2022/06/06 12:04:10;;;;;;;3.23;1.90;;;;;;;;;;5136250;27;20487;-69
2022/06/06 12:06:55;;;;;;;1.57;1.40;;;;;;;;;;5093293;27;20539;-69
2022/06/06 12:09:27;;;;;;;2.20;1.50;;;;;;;;;;5135667;27;20824;-69
2022/06/06 12:12:18;;;;;;;1.30;1.20;;;;;;;;;;5135386;27;20429;-69
2022/06/06 12:15:04;;;;;;;2.07;1.40;;;;;;;;;;5135617;27;20506;-70
2022/06/06 12:17:40;;;;;;;1.60;1.50;;;;;;;;;;5135314;27;20508;-71
2022/06/06 12:20:25;;;;;;;2.00;1.53;;;;;;;;;;5135575;27;20521;-71
2022/06/06 12:23:08;;;;;;;2.37;1.33;;;;;;;;;;5134804;27;20449;-71
2022/06/06 12:25:51;;;;;;;2.13;1.60;;;;;;;;;;5135516;27;20506;-71
2022/06/06 12:28:33;;;;;;;1.40;1.20;;;;;;;;;;5135601;27;20474;-72
2022/06/06 12:31:11;;;;;;;1.20;1.10;;;;;;;;;;5135347;27;20444;-71
2022/06/06 12:33:41;;;;;;;2.30;1.50;;;;;;;;;;5134806;27;20496;-70
2022/06/06 12:36:10;;;;;;;2.53;1.07;;;;;;;;;;5134620;27;20477;-70
2022/06/06 12:38:45;;;;;;;1.43;1.30;;;;;;;;;;5135241;27;20432;-70
2022/06/06 12:41:20;;;;;;;1.30;1.20;;;;;;;;;;5134624;27;20511;-70
2022/06/06 12:44:01;;;;;;;1.50;1.40;;;;;;;;;;5134081;27;20467;-70
2022/06/06 12:46:42;;;;;;;1.87;1.67;;;;;;;;;;5134706;27;20424;-70
2022/06/06 12:49:24;;;;;;;2.70;1.80;;;;;;;;;;5134494;27;20999;-70
2022/06/06 12:51:59;;;;;;;3.27;1.60;;;;;;;;;;5134793;27;20500;-70
2022/06/06 12:57:26;;;;;;;2.20;1.37;;;;;;;;;;5133527;27;20531;-70
2022/06/06 13:00:01;;;;;;;1.60;1.50;;;;;;;;;;5133436;27;20834;-70
2022/06/06 13:02:35;;;;;;;1.57;1.47;;;;;;;;;;5134409;27;20519;-70
2022/06/06 13:05:12;;;;;;;1.60;1.40;;;;;;;;;;5134601;27;20858;-70
2022/06/06 13:07:48;;;;;;;3.10;1.40;;;;;;;;;;5134168;27;20482;-70
2022/06/06 13:10:19;;;;;;;1.90;1.43;;;;;;;;;;5133978;27;20911;-70
2022/06/06 13:12:54;;;;;;;1.93;1.37;;;;;;;;;;5134279;27;20809;-70
2022/06/06 13:15:26;;;;;;;1.80;1.70;;;;;;;;;;5134339;27;20512;-69
2022/06/06 13:18:03;;;;;;;2.10;1.20;;;;;;;;;;5134233;27;20547;-70
2022/06/06 13:20:38;;;;;;;1.47;1.37;;;;;;;;;;5133847;27;20433;-70
2022/06/06 13:23:17;;;;;;;1.50;1.40;;;;;;;;;;5133885;27;20441;-70
2022/06/06 13:25:51;;;;;;;1.87;1.77;;;;;;;;;;5134552;28;20543;-70
2022/06/06 13:28:21;;;;;;;1.97;1.60;;;;;;;;;;5134271;28;20798;-71
2022/06/06 13:30:58;;;;;;;1.90;1.50;;;;;;;;;;5133815;28;20442;-70
2022/06/06 13:33:31;;;;;;;1.80;1.70;;;;;;;;;;5134138;28;20569;-70
2022/06/06 13:36:02;;;;;;;3.07;1.83;;;;;;;;;;5134090;28;20514;-69
2022/06/06 13:38:39;;;;;;;1.83;1.70;;;;;;;;;;5134226;28;20453;-69
2022/06/06 13:41:12;;;;;;;3.40;1.83;;;;;;;;;;5134478;28;20525;-70
2022/06/06 13:43:57;;;;;;;6.60;2.10;;;;;;;;;;5134276;28;20538;-70
2022/06/06 13:46:33;;;;;;;3.00;2.20;;;;;;;;;;5134142;28;20438;-70
2022/06/06 13:49:07;;;;;;;2.13;1.60;;;;;;;;;;5133857;28;20506;-71
2022/06/06 13:51:41;;;;;;;2.30;1.97;;;;;;;;;;5133637;28;20517;-70
2022/06/06 13:54:10;;;;;;;2.90;2.03;;;;;;;;;;5133739;28;20495;-70
2022/06/06 13:56:40;;;;;;;2.13;1.93;;;;;;;;;;5135856;27;20465;-69
2022/06/06 13:59:19;;;;;;;3.77;1.87;;;;;;;;;;5138053;27;20434;-70
2022/06/06 14:01:54;;;;;;;3.90;1.63;;;;;;;;;;5138091;27;20531;-71
2022/06/06 14:04:27;;;;;;;3.50;2.10;;;;;;;;;;5137600;27;20509;-70
2022/06/06 14:07:03;;;;;;;2.23;2.03;;;;;;;;;;5138143;27;20428;-70
2022/06/06 14:09:38;;;;;;;2.93;2.47;;;;;;;;;;5137542;27;20485;-69
2022/06/06 14:12:16;;;;;;;2.50;2.20;;;;;;;;;;5137566;27;20436;-69
2022/06/06 14:14:44;;;;;;;2.20;2.10;;;;;;;;;;5134939;27;20518;-70
2022/06/06 14:17:13;;;;;;;1.93;1.73;;;;;;;;;;5137545;27;20523;-70
2022/06/06 14:19:53;;;;;;;2.60;1.93;;;;;;;;;;5137661;27;20769;-70
2022/06/06 14:22:27;;;;;;;2.50;2.30;;;;;;;;;;5137391;27;20606;-70
2022/06/06 14:24:55;;;;;;;2.23;2.13;;;;;;;;;;5137085;27;20440;-70
2022/06/06 14:27:23;;;;;;;2.30;1.90;;;;;;;;;;5137148;27;20494;-70
2022/06/06 14:29:57;;;;;;;1.87;1.50;;;;;;;;;;5137380;27;20860;-70
2022/06/06 14:32:27;;;;;;;1.67;1.57;;;;;;;;;;5136867;27;20436;-70
2022/06/06 14:34:56;;;;;;;2.47;2.27;;;;;;;;;;5137622;27;20901;-70
2022/06/06 14:37:26;;;;;;;2.50;1.60;;;;;;;;;;5137139;27;20496;-70
2022/06/06 14:39:55;;;;;;;5.33;1.80;;;;;;;;;;5137208;27;20838;-70
2022/06/06 14:42:26;;;;;;;4.20;2.23;;;;;;;;;;5136902;27;20543;-69
2022/06/06 14:44:57;;;;;;;2.67;1.73;;;;;;;;;;5137222;27;20544;-69
2022/06/06 14:47:27;;;;;;;2.17;1.90;;;;;;;;;;5136510;27;20427;-69
2022/06/06 14:52:51;;;;;;;3.60;2.60;;;;;;;;;;5136408;27;20402;-69
2022/06/06 14:55:20;;;;;;;7.47;2.17;;;;;;;;;;5136815;27;20533;-70
2022/06/06 14:57:48;;;;;;;4.53;2.10;;;;;;;;;;5136369;27;20526;-69
2022/06/06 15:00:31;;;;;;;2.20;2.00;;;;;;;;;;5136124;27;20432;-70
2022/06/06 15:03:03;;;;;;;2.90;1.80;;;;;;;;;;5136589;27;20423;-69
2022/06/06 15:05:30;;;;;;;2.57;1.90;;;;;;;;;;5136921;27;20469;-70
2022/06/06 15:08:01;;;;;;;3.10;2.37;;;;;;;;;;5135487;27;20520;-69
2022/06/06 15:10:29;;;;;;;4.27;2.27;;;;;;;;;;5136622;27;20427;-69
2022/06/06 15:12:58;;;;;;;2.27;2.07;;;;;;;;;;5136506;27;20473;-68
2022/06/06 15:15:29;;;;;;;3.30;2.10;;;;;;;;;;5136160;27;20446;-69
2022/06/06 15:17:56;;;;;;;1.70;1.60;;;;;;;;;;5136091;27;20448;-69
2022/06/06 15:20:28;;;;;;;5.00;1.83;;;;;;;;;;5135812;27;20442;-68
2022/06/06 15:22:56;;;;;;;2.30;1.50;;;;;;;;;;5136101;27;20448;-68
2022/06/06 15:25:25;;;;;;;6.33;2.00;;;;;;;;;;5135837;27;20517;-69
2022/06/06 15:27:57;;;;;;;2.40;1.40;;;;;;;;;;5135842;27;20476;-68
2022/06/06 15:30:27;;;;;;;2.00;1.43;;;;;;;;;;5136150;27;20431;-69
2022/06/06 15:32:59;;;;;;;2.43;1.50;;;;;;;;;;5136201;27;20441;-68
2022/06/06 15:35:34;;;;;;;2.37;1.67;;;;;;;;;;5136374;27;20429;-69
2022/06/06 15:38:10;;;;;;;1.43;1.33;;;;;;;;;;5135718;27;20520;-68
2022/06/06 15:40:40;;;;;;;2.17;1.73;;;;;;;;;;5135671;27;20918;-69
2022/06/06 15:43:12;;;;;;;1.63;1.30;;;;;;;;;;5135937;27;20481;-69